sensor_id;sensor_type;location;lat;lon;timestamp;temperature;humidity
76293;DHT22;67256;51.154;4.164;2023-05-07T00:00:03;19.80;65.90
76293;DHT22;67256;51.154;4.164;2023-05-07T00:02:29;19.80;65.90
76293;DHT22;67256;51.154;4.164;2023-05-07T00:04:54;19.70;65.90
76293;DHT22;67256;51.154;4.164;2023-05-07T00:07:20;19.80;65.90
76293;DHT22;67256;51.154;4.164;2023-05-07T00:09:46;19.70;66.00
76293;DHT22;67256;51.154;4.164;2023-05-07T00:12:12;19.70;65.90
76293;DHT22;67256;51.154;4.164;2023-05-07T00:14:37;19.70;66.30
76293;DHT22;67256;51.154;4.164;2023-05-07T00:17:03;19.70;66.40
76293;DHT22;67256;51.154;4.164;2023-05-07T00:19:29;19.70;66.50
76293;DHT22;67256;51.154;4.164;2023-05-07T00:21:55;19.70;66.50
76293;DHT22;67256;51.154;4.164;2023-05-07T00:24:22;19.70;66.50
76293;DHT22;67256;51.154;4.164;2023-05-07T00:26:47;19.70;66.60
76293;DHT22;67256;51.154;4.164;2023-05-07T00:29:13;19.70;66.70
76293;DHT22;67256;51.154;4.164;2023-05-07T00:31:39;19.60;66.70
76293;DHT22;67256;51.154;4.164;2023-05-07T00:34:05;19.60;66.60
76293;DHT22;67256;51.154;4.164;2023-05-07T00:36:31;19.60;66.70
76293;DHT22;67256;51.154;4.164;2023-05-07T00:38:59;19.60;66.70
76293;DHT22;67256;51.154;4.164;2023-05-07T00:41:25;19.60;66.80
76293;DHT22;67256;51.154;4.164;2023-05-07T00:43:51;19.50;66.70
76293;DHT22;67256;51.154;4.164;2023-05-07T00:46:18;19.60;66.80
76293;DHT22;67256;51.154;4.164;2023-05-07T00:48:45;19.50;66.70
76293;DHT22;67256;51.154;4.164;2023-05-07T00:51:14;19.50;66.80
76293;DHT22;67256;51.154;4.164;2023-05-07T00:53:39;19.50;67.00
76293;DHT22;67256;51.154;4.164;2023-05-07T00:56:06;19.50;67.50
76293;DHT22;67256;51.154;4.164;2023-05-07T00:58:33;19.40;66.90
76293;DHT22;67256;51.154;4.164;2023-05-07T01:00:59;19.40;66.90
76293;DHT22;67256;51.154;4.164;2023-05-07T01:03:25;19.40;67.10
76293;DHT22;67256;51.154;4.164;2023-05-07T01:05:51;19.40;67.10
76293;DHT22;67256;51.154;4.164;2023-05-07T01:08:18;19.30;67.10
76293;DHT22;67256;51.154;4.164;2023-05-07T01:10:44;19.30;67.10
76293;DHT22;67256;51.154;4.164;2023-05-07T01:13:12;19.30;67.10
76293;DHT22;67256;51.154;4.164;2023-05-07T01:15:39;19.30;67.20
76293;DHT22;67256;51.154;4.164;2023-05-07T01:18:07;19.20;67.30
76293;DHT22;67256;51.154;4.164;2023-05-07T01:20:33;19.20;67.50
76293;DHT22;67256;51.154;4.164;2023-05-07T01:23:00;19.20;67.40
76293;DHT22;67256;51.154;4.164;2023-05-07T01:25:26;19.20;67.50
76293;DHT22;67256;51.154;4.164;2023-05-07T01:27:52;19.20;67.50
76293;DHT22;67256;51.154;4.164;2023-05-07T01:30:18;19.20;67.50
76293;DHT22;67256;51.154;4.164;2023-05-07T01:32:52;19.10;67.60
76293;DHT22;67256;51.154;4.164;2023-05-07T01:35:20;19.10;67.80
76293;DHT22;67256;51.154;4.164;2023-05-07T01:37:48;19.10;67.90
76293;DHT22;67256;51.154;4.164;2023-05-07T01:40:14;19.10;67.70
76293;DHT22;67256;51.154;4.164;2023-05-07T01:42:43;19.10;67.80
76293;DHT22;67256;51.154;4.164;2023-05-07T01:45:09;19.10;67.70
76293;DHT22;67256;51.154;4.164;2023-05-07T01:47:36;19.10;67.70
76293;DHT22;67256;51.154;4.164;2023-05-07T01:50:04;19.00;67.60
76293;DHT22;67256;51.154;4.164;2023-05-07T01:52:31;19.00;67.70
76293;DHT22;67256;51.154;4.164;2023-05-07T01:54:57;19.00;67.70
76293;DHT22;67256;51.154;4.164;2023-05-07T01:57:22;19.00;67.70
76293;DHT22;67256;51.154;4.164;2023-05-07T01:59:48;19.00;67.80
76293;DHT22;67256;51.154;4.164;2023-05-07T02:02:14;19.00;67.70
76293;DHT22;67256;51.154;4.164;2023-05-07T02:04:39;18.90;67.80
76293;DHT22;67256;51.154;4.164;2023-05-07T02:07:05;18.90;68.00
76293;DHT22;67256;51.154;4.164;2023-05-07T02:09:31;18.90;68.20
76293;DHT22;67256;51.154;4.164;2023-05-07T02:11:56;18.90;68.20
76293;DHT22;67256;51.154;4.164;2023-05-07T02:14:22;18.90;68.10
76293;DHT22;67256;51.154;4.164;2023-05-07T02:16:48;18.90;68.30
76293;DHT22;67256;51.154;4.164;2023-05-07T02:19:14;18.90;68.30
76293;DHT22;67256;51.154;4.164;2023-05-07T02:21:40;18.90;68.40
76293;DHT22;67256;51.154;4.164;2023-05-07T02:24:05;18.90;68.50
76293;DHT22;67256;51.154;4.164;2023-05-07T02:26:31;18.90;68.50
76293;DHT22;67256;51.154;4.164;2023-05-07T02:28:57;18.90;68.60
76293;DHT22;67256;51.154;4.164;2023-05-07T02:31:23;18.90;68.70
76293;DHT22;67256;51.154;4.164;2023-05-07T02:33:48;18.90;68.90
76293;DHT22;67256;51.154;4.164;2023-05-07T02:36:14;18.90;69.00
76293;DHT22;67256;51.154;4.164;2023-05-07T02:38:40;18.90;69.00
76293;DHT22;67256;51.154;4.164;2023-05-07T02:41:06;19.00;68.90
76293;DHT22;67256;51.154;4.164;2023-05-07T02:43:32;18.90;69.00
76293;DHT22;67256;51.154;4.164;2023-05-07T02:46:05;18.90;69.10
76293;DHT22;67256;51.154;4.164;2023-05-07T02:48:31;18.90;69.20
76293;DHT22;67256;51.154;4.164;2023-05-07T02:50:57;18.90;69.20
76293;DHT22;67256;51.154;4.164;2023-05-07T02:53:23;18.90;69.30
76293;DHT22;67256;51.154;4.164;2023-05-07T02:55:52;18.90;69.30
76293;DHT22;67256;51.154;4.164;2023-05-07T02:58:19;18.90;69.30
76293;DHT22;67256;51.154;4.164;2023-05-07T03:00:45;18.90;69.30
76293;DHT22;67256;51.154;4.164;2023-05-07T03:03:10;18.90;69.40
76293;DHT22;67256;51.154;4.164;2023-05-07T03:05:36;18.90;69.40
76293;DHT22;67256;51.154;4.164;2023-05-07T03:08:02;18.90;70.00
76293;DHT22;67256;51.154;4.164;2023-05-07T03:10:29;18.80;69.50
76293;DHT22;67256;51.154;4.164;2023-05-07T03:12:55;18.80;69.50
76293;DHT22;67256;51.154;4.164;2023-05-07T03:15:21;18.80;69.60
76293;DHT22;67256;51.154;4.164;2023-05-07T03:17:47;18.80;69.50
76293;DHT22;67256;51.154;4.164;2023-05-07T03:20:13;18.80;69.50
76293;DHT22;67256;51.154;4.164;2023-05-07T03:22:39;18.80;69.50
76293;DHT22;67256;51.154;4.164;2023-05-07T03:25:06;18.80;69.70
76293;DHT22;67256;51.154;4.164;2023-05-07T03:27:32;18.80;69.80
76293;DHT22;67256;51.154;4.164;2023-05-07T03:29:57;18.80;69.70
76293;DHT22;67256;51.154;4.164;2023-05-07T03:32:23;18.80;69.80
76293;DHT22;67256;51.154;4.164;2023-05-07T03:34:49;18.70;69.70
76293;DHT22;67256;51.154;4.164;2023-05-07T03:37:14;18.70;69.90
76293;DHT22;67256;51.154;4.164;2023-05-07T03:39:41;18.70;69.90
76293;DHT22;67256;51.154;4.164;2023-05-07T03:42:06;18.70;70.00
76293;DHT22;67256;51.154;4.164;2023-05-07T03:44:32;18.80;70.00
76293;DHT22;67256;51.154;4.164;2023-05-07T03:46:58;18.80;70.10
76293;DHT22;67256;51.154;4.164;2023-05-07T03:49:23;18.80;70.20
76293;DHT22;67256;51.154;4.164;2023-05-07T03:51:49;18.70;70.20
76293;DHT22;67256;51.154;4.164;2023-05-07T03:54:15;18.70;70.20
76293;DHT22;67256;51.154;4.164;2023-05-07T03:56:41;18.70;70.30
76293;DHT22;67256;51.154;4.164;2023-05-07T03:59:07;18.70;70.40
76293;DHT22;67256;51.154;4.164;2023-05-07T04:01:33;18.70;70.90
76293;DHT22;67256;51.154;4.164;2023-05-07T04:03:58;18.70;70.50
76293;DHT22;67256;51.154;4.164;2023-05-07T04:06:24;18.70;70.60
76293;DHT22;67256;51.154;4.164;2023-05-07T04:08:50;18.70;70.50
76293;DHT22;67256;51.154;4.164;2023-05-07T04:11:16;18.70;70.50
76293;DHT22;67256;51.154;4.164;2023-05-07T04:13:42;18.70;70.60
76293;DHT22;67256;51.154;4.164;2023-05-07T04:16:08;18.70;70.60
76293;DHT22;67256;51.154;4.164;2023-05-07T04:18:34;18.70;71.20
76293;DHT22;67256;51.154;4.164;2023-05-07T04:20:59;18.70;70.80
76293;DHT22;67256;51.154;4.164;2023-05-07T04:23:25;18.70;70.80
76293;DHT22;67256;51.154;4.164;2023-05-07T04:25:51;18.70;70.90
76293;DHT22;67256;51.154;4.164;2023-05-07T04:28:16;18.70;71.00
76293;DHT22;67256;51.154;4.164;2023-05-07T04:30:42;18.70;71.10
76293;DHT22;67256;51.154;4.164;2023-05-07T04:33:08;18.60;71.10
76293;DHT22;67256;51.154;4.164;2023-05-07T04:35:33;18.70;71.20
76293;DHT22;67256;51.154;4.164;2023-05-07T04:38:00;18.70;71.30
76293;DHT22;67256;51.154;4.164;2023-05-07T04:40:25;18.70;71.30
76293;DHT22;67256;51.154;4.164;2023-05-07T04:42:51;18.70;71.30
76293;DHT22;67256;51.154;4.164;2023-05-07T04:45:18;18.70;71.40
76293;DHT22;67256;51.154;4.164;2023-05-07T04:47:44;18.70;71.40
76293;DHT22;67256;51.154;4.164;2023-05-07T04:50:10;18.70;71.30
76293;DHT22;67256;51.154;4.164;2023-05-07T04:52:36;18.70;71.30
76293;DHT22;67256;51.154;4.164;2023-05-07T04:55:01;18.70;71.30
76293;DHT22;67256;51.154;4.164;2023-05-07T04:57:27;18.70;71.30
76293;DHT22;67256;51.154;4.164;2023-05-07T04:59:54;18.70;71.30
76293;DHT22;67256;51.154;4.164;2023-05-07T05:02:19;18.70;71.40
76293;DHT22;67256;51.154;4.164;2023-05-07T05:04:45;18.70;71.50
76293;DHT22;67256;51.154;4.164;2023-05-07T05:07:11;18.70;71.40
76293;DHT22;67256;51.154;4.164;2023-05-07T05:09:36;18.80;71.70
76293;DHT22;67256;51.154;4.164;2023-05-07T05:12:02;18.80;71.70
76293;DHT22;67256;51.154;4.164;2023-05-07T05:14:29;18.80;71.60
76293;DHT22;67256;51.154;4.164;2023-05-07T05:16:54;18.80;71.80
76293;DHT22;67256;51.154;4.164;2023-05-07T05:19:20;18.80;71.60
76293;DHT22;67256;51.154;4.164;2023-05-07T05:21:46;18.80;71.70
76293;DHT22;67256;51.154;4.164;2023-05-07T05:24:11;18.80;71.60
76293;DHT22;67256;51.154;4.164;2023-05-07T05:26:37;18.90;71.80
76293;DHT22;67256;51.154;4.164;2023-05-07T05:29:03;18.90;71.80
76293;DHT22;67256;51.154;4.164;2023-05-07T05:31:28;18.90;71.90
76293;DHT22;67256;51.154;4.164;2023-05-07T05:33:54;18.90;71.80
76293;DHT22;67256;51.154;4.164;2023-05-07T05:36:19;18.90;71.90
76293;DHT22;67256;51.154;4.164;2023-05-07T05:38:45;19.00;71.90
76293;DHT22;67256;51.154;4.164;2023-05-07T05:41:12;19.00;71.70
76293;DHT22;67256;51.154;4.164;2023-05-07T05:43:38;19.00;71.70
76293;DHT22;67256;51.154;4.164;2023-05-07T05:46:04;19.00;72.00
76293;DHT22;67256;51.154;4.164;2023-05-07T05:48:30;19.00;71.90
76293;DHT22;67256;51.154;4.164;2023-05-07T05:50:55;19.00;72.00
76293;DHT22;67256;51.154;4.164;2023-05-07T05:53:21;19.00;72.00
76293;DHT22;67256;51.154;4.164;2023-05-07T05:55:47;19.10;71.70
76293;DHT22;67256;51.154;4.164;2023-05-07T05:58:13;19.10;71.60
76293;DHT22;67256;51.154;4.164;2023-05-07T06:00:40;19.10;71.70
76293;DHT22;67256;51.154;4.164;2023-05-07T06:03:06;19.10;71.90
76293;DHT22;67256;51.154;4.164;2023-05-07T06:05:31;19.10;71.70
76293;DHT22;67256;51.154;4.164;2023-05-07T06:07:57;19.10;71.90
76293;DHT22;67256;51.154;4.164;2023-05-07T06:10:23;19.10;71.80
76293;DHT22;67256;51.154;4.164;2023-05-07T06:12:49;19.00;72.00
76293;DHT22;67256;51.154;4.164;2023-05-07T06:15:15;19.10;72.10
76293;DHT22;67256;51.154;4.164;2023-05-07T06:17:40;19.10;72.30
76293;DHT22;67256;51.154;4.164;2023-05-07T06:20:07;19.10;72.60
76293;DHT22;67256;51.154;4.164;2023-05-07T06:22:33;19.20;72.80
76293;DHT22;67256;51.154;4.164;2023-05-07T06:24:59;19.20;72.70
76293;DHT22;67256;51.154;4.164;2023-05-07T06:27:24;19.20;72.70
76293;DHT22;67256;51.154;4.164;2023-05-07T06:29:50;19.30;72.20
76293;DHT22;67256;51.154;4.164;2023-05-07T06:32:16;19.30;72.30
76293;DHT22;67256;51.154;4.164;2023-05-07T06:34:42;19.40;72.40
76293;DHT22;67256;51.154;4.164;2023-05-07T06:37:08;19.40;72.30
76293;DHT22;67256;51.154;4.164;2023-05-07T06:39:34;19.40;72.10
76293;DHT22;67256;51.154;4.164;2023-05-07T06:42:00;19.50;71.90
76293;DHT22;67256;51.154;4.164;2023-05-07T06:44:26;19.50;71.70
76293;DHT22;67256;51.154;4.164;2023-05-07T06:46:52;19.40;71.60
76293;DHT22;67256;51.154;4.164;2023-05-07T06:49:18;19.50;71.70
76293;DHT22;67256;51.154;4.164;2023-05-07T06:51:43;19.50;71.40
76293;DHT22;67256;51.154;4.164;2023-05-07T06:54:09;19.50;71.60
76293;DHT22;67256;51.154;4.164;2023-05-07T06:56:35;19.50;71.50
76293;DHT22;67256;51.154;4.164;2023-05-07T06:59:02;19.60;71.40
76293;DHT22;67256;51.154;4.164;2023-05-07T07:01:28;19.60;71.40
76293;DHT22;67256;51.154;4.164;2023-05-07T07:03:54;19.60;70.90
76293;DHT22;67256;51.154;4.164;2023-05-07T07:06:20;19.60;70.70
76293;DHT22;67256;51.154;4.164;2023-05-07T07:08:45;19.70;71.20
76293;DHT22;67256;51.154;4.164;2023-05-07T07:11:11;19.70;70.50
76293;DHT22;67256;51.154;4.164;2023-05-07T07:13:37;19.60;70.60
76293;DHT22;67256;51.154;4.164;2023-05-07T07:16:03;19.60;70.40
76293;DHT22;67256;51.154;4.164;2023-05-07T07:18:29;19.70;70.70
76293;DHT22;67256;51.154;4.164;2023-05-07T07:20:54;19.70;70.30
76293;DHT22;67256;51.154;4.164;2023-05-07T07:23:20;19.70;70.10
76293;DHT22;67256;51.154;4.164;2023-05-07T07:25:46;19.80;70.30
76293;DHT22;67256;51.154;4.164;2023-05-07T07:28:12;19.80;70.00
76293;DHT22;67256;51.154;4.164;2023-05-07T07:30:38;19.90;69.80
76293;DHT22;67256;51.154;4.164;2023-05-07T07:33:03;19.80;69.50
76293;DHT22;67256;51.154;4.164;2023-05-07T07:35:29;19.80;69.60
76293;DHT22;67256;51.154;4.164;2023-05-07T07:37:55;19.80;69.80
76293;DHT22;67256;51.154;4.164;2023-05-07T07:40:21;19.90;70.10
76293;DHT22;67256;51.154;4.164;2023-05-07T07:42:47;19.90;69.90
76293;DHT22;67256;51.154;4.164;2023-05-07T07:45:13;20.00;69.60
76293;DHT22;67256;51.154;4.164;2023-05-07T07:47:42;20.00;69.80
76293;DHT22;67256;51.154;4.164;2023-05-07T07:50:08;20.00;69.90
76293;DHT22;67256;51.154;4.164;2023-05-07T07:52:34;20.10;70.10
76293;DHT22;67256;51.154;4.164;2023-05-07T07:54:59;20.10;69.70
76293;DHT22;67256;51.154;4.164;2023-05-07T07:57:25;20.10;69.70
76293;DHT22;67256;51.154;4.164;2023-05-07T07:59:51;20.00;69.60
76293;DHT22;67256;51.154;4.164;2023-05-07T08:02:17;19.90;70.20
76293;DHT22;67256;51.154;4.164;2023-05-07T08:04:43;20.00;70.60
76293;DHT22;67256;51.154;4.164;2023-05-07T08:07:09;19.90;70.60
76293;DHT22;67256;51.154;4.164;2023-05-07T08:09:36;20.00;70.80
76293;DHT22;67256;51.154;4.164;2023-05-07T08:12:02;20.00;70.70
76293;DHT22;67256;51.154;4.164;2023-05-07T08:14:28;20.00;70.80
76293;DHT22;67256;51.154;4.164;2023-05-07T08:16:54;20.00;70.80
76293;DHT22;67256;51.154;4.164;2023-05-07T08:19:20;20.10;70.90
76293;DHT22;67256;51.154;4.164;2023-05-07T08:21:47;20.10;70.90
76293;DHT22;67256;51.154;4.164;2023-05-07T08:24:16;20.10;70.70
76293;DHT22;67256;51.154;4.164;2023-05-07T08:26:43;20.10;70.80
76293;DHT22;67256;51.154;4.164;2023-05-07T08:29:09;20.10;71.00
76293;DHT22;67256;51.154;4.164;2023-05-07T08:31:35;20.00;71.20
76293;DHT22;67256;51.154;4.164;2023-05-07T08:34:01;20.10;71.40
76293;DHT22;67256;51.154;4.164;2023-05-07T08:36:26;20.00;71.40
76293;DHT22;67256;51.154;4.164;2023-05-07T08:38:54;20.00;71.40
76293;DHT22;67256;51.154;4.164;2023-05-07T08:41:20;20.00;71.80
76293;DHT22;67256;51.154;4.164;2023-05-07T08:43:50;19.90;71.70
76293;DHT22;67256;51.154;4.164;2023-05-07T08:46:21;19.90;72.00
76293;DHT22;67256;51.154;4.164;2023-05-07T08:48:51;19.80;72.10
76293;DHT22;67256;51.154;4.164;2023-05-07T08:51:19;19.80;72.20
76293;DHT22;67256;51.154;4.164;2023-05-07T08:53:46;19.80;72.40
76293;DHT22;67256;51.154;4.164;2023-05-07T08:56:14;19.80;72.60
76293;DHT22;67256;51.154;4.164;2023-05-07T08:58:44;19.70;72.30
76293;DHT22;67256;51.154;4.164;2023-05-07T09:01:14;19.70;72.40
76293;DHT22;67256;51.154;4.164;2023-05-07T09:03:40;19.70;72.50
76293;DHT22;67256;51.154;4.164;2023-05-07T09:06:07;19.70;72.60
76293;DHT22;67256;51.154;4.164;2023-05-07T09:08:33;19.70;73.00
76293;DHT22;67256;51.154;4.164;2023-05-07T09:10:59;19.70;72.90
76293;DHT22;67256;51.154;4.164;2023-05-07T09:13:26;19.70;73.20
76293;DHT22;67256;51.154;4.164;2023-05-07T09:15:52;19.70;73.20
76293;DHT22;67256;51.154;4.164;2023-05-07T09:18:18;19.70;73.40
76293;DHT22;67256;51.154;4.164;2023-05-07T09:20:43;19.70;73.50
76293;DHT22;67256;51.154;4.164;2023-05-07T09:23:09;19.80;73.20
76293;DHT22;67256;51.154;4.164;2023-05-07T09:25:36;19.80;73.10
76293;DHT22;67256;51.154;4.164;2023-05-07T09:28:03;19.70;73.00
76293;DHT22;67256;51.154;4.164;2023-05-07T09:30:30;19.80;73.10
76293;DHT22;67256;51.154;4.164;2023-05-07T09:32:58;19.80;73.20
76293;DHT22;67256;51.154;4.164;2023-05-07T09:35:25;19.80;73.50
76293;DHT22;67256;51.154;4.164;2023-05-07T09:37:53;19.80;73.90
76293;DHT22;67256;51.154;4.164;2023-05-07T09:40:23;19.80;74.10
76293;DHT22;67256;51.154;4.164;2023-05-07T09:42:49;19.90;74.10
76293;DHT22;67256;51.154;4.164;2023-05-07T09:45:21;19.90;73.20
76293;DHT22;67256;51.154;4.164;2023-05-07T09:47:48;19.90;74.00
76293;DHT22;67256;51.154;4.164;2023-05-07T09:50:15;19.90;74.00
76293;DHT22;67256;51.154;4.164;2023-05-07T09:52:42;20.00;73.90
76293;DHT22;67256;51.154;4.164;2023-05-07T09:55:09;20.00;74.00
76293;DHT22;67256;51.154;4.164;2023-05-07T09:57:36;20.10;73.90
76293;DHT22;67256;51.154;4.164;2023-05-07T10:00:03;20.10;73.70
76293;DHT22;67256;51.154;4.164;2023-05-07T10:02:30;20.10;73.70
76293;DHT22;67256;51.154;4.164;2023-05-07T10:04:57;20.10;73.10
76293;DHT22;67256;51.154;4.164;2023-05-07T10:07:26;20.10;73.20
76293;DHT22;67256;51.154;4.164;2023-05-07T10:09:52;20.00;73.40
76293;DHT22;67256;51.154;4.164;2023-05-07T10:12:18;20.10;73.60
76293;DHT22;67256;51.154;4.164;2023-05-07T10:14:45;20.10;73.00
76293;DHT22;67256;51.154;4.164;2023-05-07T10:17:12;20.00;73.10
76293;DHT22;67256;51.154;4.164;2023-05-07T10:19:40;20.10;73.60
76293;DHT22;67256;51.154;4.164;2023-05-07T10:22:06;20.10;73.50
76293;DHT22;67256;51.154;4.164;2023-05-07T10:24:34;20.20;73.30
76293;DHT22;67256;51.154;4.164;2023-05-07T10:27:04;20.20;73.40
76293;DHT22;67256;51.154;4.164;2023-05-07T10:34:54;20.30;72.50
76293;DHT22;67256;51.154;4.164;2023-05-07T10:37:20;20.40;72.40
76293;DHT22;67256;51.154;4.164;2023-05-07T10:39:47;20.50;72.30
76293;DHT22;67256;51.154;4.164;2023-05-07T10:42:14;20.50;72.20
76293;DHT22;67256;51.154;4.164;2023-05-07T10:44:40;20.60;72.00
76293;DHT22;67256;51.154;4.164;2023-05-07T10:47:10;20.70;71.80
76293;DHT22;67256;51.154;4.164;2023-05-07T10:54:43;20.90;72.20
76293;DHT22;67256;51.154;4.164;2023-05-07T10:57:35;21.00;71.70
76293;DHT22;67256;51.154;4.164;2023-05-07T11:05:29;21.00;71.00
76293;DHT22;67256;51.154;4.164;2023-05-07T11:07:59;21.10;70.80
76293;DHT22;67256;51.154;4.164;2023-05-07T11:10:51;21.10;70.80
76293;DHT22;67256;51.154;4.164;2023-05-07T11:13:18;21.10;70.30
76293;DHT22;67256;51.154;4.164;2023-05-07T11:15:46;21.20;71.00
76293;DHT22;67256;51.154;4.164;2023-05-07T11:18:16;21.20;70.60
76293;DHT22;67256;51.154;4.164;2023-05-07T11:20:57;21.20;70.80
76293;DHT22;67256;51.154;4.164;2023-05-07T11:26:05;21.20;70.60
76293;DHT22;67256;51.154;4.164;2023-05-07T11:28:37;21.30;71.00
76293;DHT22;67256;51.154;4.164;2023-05-07T11:31:03;21.40;70.00
76293;DHT22;67256;51.154;4.164;2023-05-07T11:33:29;21.30;69.90
76293;DHT22;67256;51.154;4.164;2023-05-07T11:35:56;21.30;70.00
76293;DHT22;67256;51.154;4.164;2023-05-07T11:38:22;21.30;70.40
76293;DHT22;67256;51.154;4.164;2023-05-07T11:40:59;21.40;70.30
76293;DHT22;67256;51.154;4.164;2023-05-07T11:43:29;21.40;69.90
76293;DHT22;67256;51.154;4.164;2023-05-07T11:45:58;21.50;70.30
76293;DHT22;67256;51.154;4.164;2023-05-07T11:48:29;21.50;69.90
76293;DHT22;67256;51.154;4.164;2023-05-07T11:53:28;21.60;69.50
76293;DHT22;67256;51.154;4.164;2023-05-07T11:55:56;21.50;69.50
76293;DHT22;67256;51.154;4.164;2023-05-07T11:58:23;21.50;69.60
76293;DHT22;67256;51.154;4.164;2023-05-07T12:00:50;21.60;69.80
76293;DHT22;67256;51.154;4.164;2023-05-07T12:03:16;21.60;69.20
76293;DHT22;67256;51.154;4.164;2023-05-07T12:05:44;21.70;69.90
76293;DHT22;67256;51.154;4.164;2023-05-07T12:08:17;21.80;69.40
76293;DHT22;67256;51.154;4.164;2023-05-07T12:10:43;21.80;68.60
76293;DHT22;67256;51.154;4.164;2023-05-07T12:13:19;21.90;68.70
76293;DHT22;67256;51.154;4.164;2023-05-07T12:15:45;21.90;68.60
76293;DHT22;67256;51.154;4.164;2023-05-07T12:18:13;21.90;68.70
76293;DHT22;67256;51.154;4.164;2023-05-07T12:20:40;21.90;68.60
76293;DHT22;67256;51.154;4.164;2023-05-07T12:23:06;22.00;68.70
76293;DHT22;67256;51.154;4.164;2023-05-07T12:25:34;21.90;68.20
76293;DHT22;67256;51.154;4.164;2023-05-07T12:28:01;21.80;68.50
76293;DHT22;67256;51.154;4.164;2023-05-07T12:30:27;21.80;68.40
76293;DHT22;67256;51.154;4.164;2023-05-07T12:32:53;21.80;69.10
76293;DHT22;67256;51.154;4.164;2023-05-07T12:35:39;21.90;69.10
76293;DHT22;67256;51.154;4.164;2023-05-07T12:38:13;21.80;68.30
76293;DHT22;67256;51.154;4.164;2023-05-07T12:40:41;21.70;68.50
76293;DHT22;67256;51.154;4.164;2023-05-07T12:43:15;21.80;69.10
76293;DHT22;67256;51.154;4.164;2023-05-07T12:45:42;22.00;68.90
76293;DHT22;67256;51.154;4.164;2023-05-07T12:48:09;22.00;67.60
76293;DHT22;67256;51.154;4.164;2023-05-07T12:50:35;22.00;67.00
76293;DHT22;67256;51.154;4.164;2023-05-07T12:53:04;21.70;68.80
76293;DHT22;67256;51.154;4.164;2023-05-07T12:55:31;21.80;68.20
76293;DHT22;67256;51.154;4.164;2023-05-07T12:58:00;21.90;67.40
76293;DHT22;67256;51.154;4.164;2023-05-07T13:00:39;21.90;66.70
76293;DHT22;67256;51.154;4.164;2023-05-07T13:03:06;22.00;66.30
76293;DHT22;67256;51.154;4.164;2023-05-07T13:05:32;22.00;67.00
76293;DHT22;67256;51.154;4.164;2023-05-07T13:07:58;22.00;66.90
76293;DHT22;67256;51.154;4.164;2023-05-07T13:10:24;22.10;66.50
76293;DHT22;67256;51.154;4.164;2023-05-07T13:12:50;22.10;66.60
76293;DHT22;67256;51.154;4.164;2023-05-07T13:15:17;22.10;66.40
76293;DHT22;67256;51.154;4.164;2023-05-07T13:17:43;22.10;66.60
76293;DHT22;67256;51.154;4.164;2023-05-07T13:20:12;22.10;66.20
76293;DHT22;67256;51.154;4.164;2023-05-07T13:22:42;21.90;67.10
76293;DHT22;67256;51.154;4.164;2023-05-07T13:25:08;21.80;67.20
76293;DHT22;67256;51.154;4.164;2023-05-07T13:27:34;21.70;67.20
76293;DHT22;67256;51.154;4.164;2023-05-07T13:30:06;21.60;68.10
76293;DHT22;67256;51.154;4.164;2023-05-07T13:32:32;21.60;68.20
76293;DHT22;67256;51.154;4.164;2023-05-07T13:34:57;21.50;69.00
76293;DHT22;67256;51.154;4.164;2023-05-07T13:37:23;21.40;68.50
76293;DHT22;67256;51.154;4.164;2023-05-07T13:39:49;21.40;68.70
76293;DHT22;67256;51.154;4.164;2023-05-07T13:42:15;21.40;68.70
76293;DHT22;67256;51.154;4.164;2023-05-07T13:44:40;21.40;68.80
76293;DHT22;67256;51.154;4.164;2023-05-07T13:47:06;21.50;68.30
76293;DHT22;67256;51.154;4.164;2023-05-07T13:49:32;21.60;68.10
76293;DHT22;67256;51.154;4.164;2023-05-07T13:51:57;21.60;67.90
76293;DHT22;67256;51.154;4.164;2023-05-07T13:54:23;21.70;67.60
76293;DHT22;67256;51.154;4.164;2023-05-07T13:56:49;21.80;67.30
76293;DHT22;67256;51.154;4.164;2023-05-07T13:59:14;21.80;67.60
76293;DHT22;67256;51.154;4.164;2023-05-07T14:01:40;21.80;67.10
76293;DHT22;67256;51.154;4.164;2023-05-07T14:04:06;21.80;67.20
76293;DHT22;67256;51.154;4.164;2023-05-07T14:06:33;21.90;65.80
76293;DHT22;67256;51.154;4.164;2023-05-07T14:08:59;21.80;66.10
76293;DHT22;67256;51.154;4.164;2023-05-07T14:11:25;21.90;66.00
76293;DHT22;67256;51.154;4.164;2023-05-07T14:13:51;22.00;65.70
76293;DHT22;67256;51.154;4.164;2023-05-07T14:16:16;22.10;66.50
76293;DHT22;67256;51.154;4.164;2023-05-07T14:18:43;22.00;65.80
76293;DHT22;67256;51.154;4.164;2023-05-07T14:21:09;22.10;65.10
76293;DHT22;67256;51.154;4.164;2023-05-07T14:23:37;22.00;64.80
76293;DHT22;67256;51.154;4.164;2023-05-07T14:26:03;22.10;65.30
76293;DHT22;67256;51.154;4.164;2023-05-07T14:28:28;22.10;65.00
76293;DHT22;67256;51.154;4.164;2023-05-07T14:30:54;22.20;65.70
76293;DHT22;67256;51.154;4.164;2023-05-07T14:33:20;22.20;65.10
76293;DHT22;67256;51.154;4.164;2023-05-07T14:35:45;22.30;65.30
76293;DHT22;67256;51.154;4.164;2023-05-07T14:38:14;22.40;65.00
76293;DHT22;67256;51.154;4.164;2023-05-07T14:40:40;22.50;65.40
76293;DHT22;67256;51.154;4.164;2023-05-07T14:43:06;22.50;64.70
76293;DHT22;67256;51.154;4.164;2023-05-07T14:45:32;22.50;63.80
76293;DHT22;67256;51.154;4.164;2023-05-07T14:47:57;22.40;62.30
76293;DHT22;67256;51.154;4.164;2023-05-07T14:50:23;22.50;63.50
76293;DHT22;67256;51.154;4.164;2023-05-07T14:52:49;22.50;63.00
76293;DHT22;67256;51.154;4.164;2023-05-07T14:55:14;22.50;62.70
76293;DHT22;67256;51.154;4.164;2023-05-07T14:57:40;22.60;62.70
76293;DHT22;67256;51.154;4.164;2023-05-07T15:00:07;22.60;62.20
76293;DHT22;67256;51.154;4.164;2023-05-07T15:02:34;22.50;62.80
76293;DHT22;67256;51.154;4.164;2023-05-07T15:04:59;22.10;63.60
76293;DHT22;67256;51.154;4.164;2023-05-07T15:07:25;22.10;63.80
76293;DHT22;67256;51.154;4.164;2023-05-07T15:09:51;22.20;64.70
76293;DHT22;67256;51.154;4.164;2023-05-07T15:12:17;22.30;64.40
76293;DHT22;67256;51.154;4.164;2023-05-07T15:14:42;22.40;62.80
76293;DHT22;67256;51.154;4.164;2023-05-07T15:17:08;22.30;63.10
76293;DHT22;67256;51.154;4.164;2023-05-07T15:19:34;22.40;63.10
76293;DHT22;67256;51.154;4.164;2023-05-07T15:22:00;22.40;63.20
76293;DHT22;67256;51.154;4.164;2023-05-07T15:24:29;22.50;63.40
76293;DHT22;67256;51.154;4.164;2023-05-07T15:26:55;22.60;63.00
76293;DHT22;67256;51.154;4.164;2023-05-07T15:29:21;22.60;64.20
76293;DHT22;67256;51.154;4.164;2023-05-07T15:31:47;22.60;63.90
76293;DHT22;67256;51.154;4.164;2023-05-07T15:34:13;22.70;62.90
76293;DHT22;67256;51.154;4.164;2023-05-07T15:36:40;22.80;62.50
76293;DHT22;67256;51.154;4.164;2023-05-07T15:39:06;22.80;62.00
76293;DHT22;67256;51.154;4.164;2023-05-07T15:41:32;22.80;61.80
76293;DHT22;67256;51.154;4.164;2023-05-07T15:43:58;22.90;61.50
76293;DHT22;67256;51.154;4.164;2023-05-07T15:46:24;22.80;61.10